Terminal Aerodrome Forecast
Issued by NWS

Home | Current Version | Previous Version | Graphics & Text | Print | Product List | Glossary On
Versions: 1 2 3 4 5 6 7 8 9 10 11 12 13 14 15 16 17 18 19 20
000
FTUS43 KGRB 220534
TAFATW
TAF
KATW 220534Z 2206/2306 VRB03KT 4SM -SHRA BR VCTS SCT008 BKN040CB
      TEMPO 2206/2209 2SM +RA BKN008
     FM220900 VRB03KT 4SM -SHRA BR VCTS BKN015 BKN030CB
     FM221500 VRB03KT P6SM VCSH SCT015 OVC090
     FM222100 02008KT P6SM VCSH BKN025 OVC040=

USA.gov is the U.S. government's official web portal to all federal, state and local government web resources and services.